sensor_id;sensor_type;location;lat;lon;timestamp;P1;durP1;ratioP1;P2;durP2;ratioP2
13981;SDS011;7065;50.880;5.502;2023-03-14T00:02:21;5.68;;;1.30;;
13981;SDS011;7065;50.880;5.502;2023-03-14T00:04:47;5.03;;;1.23;;
13981;SDS011;7065;50.880;5.502;2023-03-14T00:07:13;2.65;;;1.20;;
13981;SDS011;7065;50.880;5.502;2023-03-14T00:09:39;5.10;;;1.30;;
13981;SDS011;7065;50.880;5.502;2023-03-14T00:12:05;4.00;;;1.20;;
13981;SDS011;7065;50.880;5.502;2023-03-14T00:14:32;4.10;;;1.27;;
13981;SDS011;7065;50.880;5.502;2023-03-14T00:16:58;3.95;;;1.23;;
13981;SDS011;7065;50.880;5.502;2023-03-14T00:19:24;4.07;;;1.20;;
13981;SDS011;7065;50.880;5.502;2023-03-14T00:21:50;5.47;;;1.40;;
13981;SDS011;7065;50.880;5.502;2023-03-14T00:24:15;5.70;;;1.52;;
13981;SDS011;7065;50.880;5.502;2023-03-14T00:26:41;6.63;;;1.40;;
13981;SDS011;7065;50.880;5.502;2023-03-14T00:29:07;4.70;;;1.40;;
13981;SDS011;7065;50.880;5.502;2023-03-14T00:31:32;3.72;;;1.35;;
13981;SDS011;7065;50.880;5.502;2023-03-14T00:33:58;5.18;;;1.52;;
13981;SDS011;7065;50.880;5.502;2023-03-14T00:36:24;7.78;;;1.80;;
13981;SDS011;7065;50.880;5.502;2023-03-14T00:38:50;4.53;;;1.70;;
13981;SDS011;7065;50.880;5.502;2023-03-14T00:41:21;5.60;;;1.52;;
13981;SDS011;7065;50.880;5.502;2023-03-14T00:43:48;7.15;;;1.73;;
13981;SDS011;7065;50.880;5.502;2023-03-14T00:46:14;7.97;;;1.85;;
13981;SDS011;7065;50.880;5.502;2023-03-14T00:48:39;7.03;;;1.98;;
13981;SDS011;7065;50.880;5.502;2023-03-14T00:51:06;6.63;;;1.88;;
13981;SDS011;7065;50.880;5.502;2023-03-14T00:53:36;7.30;;;2.20;;
13981;SDS011;7065;50.880;5.502;2023-03-14T00:56:04;6.43;;;1.88;;
13981;SDS011;7065;50.880;5.502;2023-03-14T00:58:31;5.55;;;2.00;;
13981;SDS011;7065;50.880;5.502;2023-03-14T01:00:57;8.73;;;2.10;;
13981;SDS011;7065;50.880;5.502;2023-03-14T01:03:23;3.70;;;1.52;;
13981;SDS011;7065;50.880;5.502;2023-03-14T01:05:49;5.55;;;1.73;;
13981;SDS011;7065;50.880;5.502;2023-03-14T01:08:15;7.88;;;1.73;;
13981;SDS011;7065;50.880;5.502;2023-03-14T01:10:41;6.50;;;1.75;;
13981;SDS011;7065;50.880;5.502;2023-03-14T01:13:07;5.70;;;1.58;;
13981;SDS011;7065;50.880;5.502;2023-03-14T01:15:34;5.93;;;1.70;;
13981;SDS011;7065;50.880;5.502;2023-03-14T01:18:00;7.47;;;1.77;;
13981;SDS011;7065;50.880;5.502;2023-03-14T01:20:26;3.00;;;1.35;;
13981;SDS011;7065;50.880;5.502;2023-03-14T01:22:52;7.45;;;1.35;;
13981;SDS011;7065;50.880;5.502;2023-03-14T01:25:18;5.38;;;1.38;;
13981;SDS011;7065;50.880;5.502;2023-03-14T01:27:44;7.88;;;1.50;;
13981;SDS011;7065;50.880;5.502;2023-03-14T01:30:10;3.95;;;1.60;;
13981;SDS011;7065;50.880;5.502;2023-03-14T01:32:37;7.78;;;1.58;;
13981;SDS011;7065;50.880;5.502;2023-03-14T01:35:03;3.25;;;1.30;;
13981;SDS011;7065;50.880;5.502;2023-03-14T01:37:29;6.82;;;1.67;;
13981;SDS011;7065;50.880;5.502;2023-03-14T01:39:55;7.60;;;1.73;;
13981;SDS011;7065;50.880;5.502;2023-03-14T01:42:20;7.75;;;1.75;;
13981;SDS011;7065;50.880;5.502;2023-03-14T01:44:50;9.70;;;1.92;;
13981;SDS011;7065;50.880;5.502;2023-03-14T01:47:21;6.68;;;1.60;;
13981;SDS011;7065;50.880;5.502;2023-03-14T01:49:48;9.63;;;1.98;;
13981;SDS011;7065;50.880;5.502;2023-03-14T01:52:31;5.82;;;1.88;;
13981;SDS011;7065;50.880;5.502;2023-03-14T01:55:05;9.10;;;2.25;;
13981;SDS011;7065;50.880;5.502;2023-03-14T01:57:37;13.13;;;2.15;;
13981;SDS011;7065;50.880;5.502;2023-03-14T02:02:39;9.77;;;2.08;;
13981;SDS011;7065;50.880;5.502;2023-03-14T02:05:07;11.60;;;2.47;;
13981;SDS011;7065;50.880;5.502;2023-03-14T02:10:05;11.85;;;2.35;;
13981;SDS011;7065;50.880;5.502;2023-03-14T02:12:31;10.55;;;2.58;;
13981;SDS011;7065;50.880;5.502;2023-03-14T02:14:58;6.70;;;1.90;;
13981;SDS011;7065;50.880;5.502;2023-03-14T02:17:24;11.52;;;2.50;;
13981;SDS011;7065;50.880;5.502;2023-03-14T02:22:25;8.13;;;2.08;;
13981;SDS011;7065;50.880;5.502;2023-03-14T02:27:23;9.65;;;2.10;;
13981;SDS011;7065;50.880;5.502;2023-03-14T02:29:54;7.82;;;2.10;;
13981;SDS011;7065;50.880;5.502;2023-03-14T02:32:29;10.52;;;2.45;;
13981;SDS011;7065;50.880;5.502;2023-03-14T02:34:59;6.50;;;1.85;;
13981;SDS011;7065;50.880;5.502;2023-03-14T02:37:30;8.98;;;2.30;;
13981;SDS011;7065;50.880;5.502;2023-03-14T02:40:02;7.05;;;1.80;;
13981;SDS011;7065;50.880;5.502;2023-03-14T02:42:29;9.18;;;2.63;;
13981;SDS011;7065;50.880;5.502;2023-03-14T02:45:25;10.05;;;2.10;;
13981;SDS011;7065;50.880;5.502;2023-03-14T02:47:44;6.60;;;1.73;;
13981;SDS011;7065;50.880;5.502;2023-03-14T02:50:18;6.47;;;1.40;;
13981;SDS011;7065;50.880;5.502;2023-03-14T02:52:46;5.43;;;1.42;;
13981;SDS011;7065;50.880;5.502;2023-03-14T02:55:12;5.40;;;1.73;;
13981;SDS011;7065;50.880;5.502;2023-03-14T02:57:38;3.65;;;1.15;;
13981;SDS011;7065;50.880;5.502;2023-03-14T03:00:04;5.20;;;1.40;;
13981;SDS011;7065;50.880;5.502;2023-03-14T03:02:30;8.05;;;1.98;;
13981;SDS011;7065;50.880;5.502;2023-03-14T03:04:56;6.43;;;2.00;;
13981;SDS011;7065;50.880;5.502;2023-03-14T03:07:22;8.32;;;1.67;;
13981;SDS011;7065;50.880;5.502;2023-03-14T03:09:47;9.35;;;1.83;;
13981;SDS011;7065;50.880;5.502;2023-03-14T03:12:13;7.40;;;2.47;;
13981;SDS011;7065;50.880;5.502;2023-03-14T03:14:39;10.77;;;2.55;;
13981;SDS011;7065;50.880;5.502;2023-03-14T03:17:04;10.18;;;2.65;;
13981;SDS011;7065;50.880;5.502;2023-03-14T03:19:31;12.52;;;3.20;;
13981;SDS011;7065;50.880;5.502;2023-03-14T03:21:57;9.30;;;2.80;;
13981;SDS011;7065;50.880;5.502;2023-03-14T03:24:23;13.98;;;3.13;;
13981;SDS011;7065;50.880;5.502;2023-03-14T03:26:49;11.07;;;2.97;;
13981;SDS011;7065;50.880;5.502;2023-03-14T03:29:15;12.25;;;2.92;;
13981;SDS011;7065;50.880;5.502;2023-03-14T03:31:41;10.32;;;2.50;;
13981;SDS011;7065;50.880;5.502;2023-03-14T03:34:07;11.02;;;2.83;;
13981;SDS011;7065;50.880;5.502;2023-03-14T03:36:33;11.80;;;2.72;;
13981;SDS011;7065;50.880;5.502;2023-03-14T03:38:59;9.45;;;2.35;;
13981;SDS011;7065;50.880;5.502;2023-03-14T03:41:24;9.40;;;2.05;;
13981;SDS011;7065;50.880;5.502;2023-03-14T03:43:50;8.32;;;2.00;;
13981;SDS011;7065;50.880;5.502;2023-03-14T03:46:16;8.18;;;2.15;;
13981;SDS011;7065;50.880;5.502;2023-03-14T03:48:42;7.22;;;2.05;;
13981;SDS011;7065;50.880;5.502;2023-03-14T03:51:10;7.18;;;2.05;;
13981;SDS011;7065;50.880;5.502;2023-03-14T03:53:38;8.77;;;2.10;;
13981;SDS011;7065;50.880;5.502;2023-03-14T03:56:04;7.32;;;1.70;;
13981;SDS011;7065;50.880;5.502;2023-03-14T03:58:30;7.57;;;2.13;;
13981;SDS011;7065;50.880;5.502;2023-03-14T04:00:56;4.40;;;1.48;;
13981;SDS011;7065;50.880;5.502;2023-03-14T04:03:22;7.00;;;1.50;;
13981;SDS011;7065;50.880;5.502;2023-03-14T04:05:57;3.33;;;1.30;;
13981;SDS011;7065;50.880;5.502;2023-03-14T04:08:27;6.07;;;1.50;;
13981;SDS011;7065;50.880;5.502;2023-03-14T04:10:54;3.08;;;1.40;;
13981;SDS011;7065;50.880;5.502;2023-03-14T04:13:21;4.35;;;1.48;;
13981;SDS011;7065;50.880;5.502;2023-03-14T04:15:47;5.20;;;1.48;;
13981;SDS011;7065;50.880;5.502;2023-03-14T04:18:12;3.40;;;1.30;;
13981;SDS011;7065;50.880;5.502;2023-03-14T04:20:38;4.32;;;1.40;;
13981;SDS011;7065;50.880;5.502;2023-03-14T04:23:04;5.30;;;1.73;;
13981;SDS011;7065;50.880;5.502;2023-03-14T04:25:29;4.20;;;1.08;;
13981;SDS011;7065;50.880;5.502;2023-03-14T04:27:55;2.55;;;1.25;;
13981;SDS011;7065;50.880;5.502;2023-03-14T04:30:21;4.32;;;1.23;;
13981;SDS011;7065;50.880;5.502;2023-03-14T04:32:47;4.05;;;1.20;;
13981;SDS011;7065;50.880;5.502;2023-03-14T04:35:13;4.55;;;1.42;;
13981;SDS011;7065;50.880;5.502;2023-03-14T04:37:39;3.53;;;1.10;;
13981;SDS011;7065;50.880;5.502;2023-03-14T04:40:07;2.60;;;1.10;;
13981;SDS011;7065;50.880;5.502;2023-03-14T04:42:35;4.75;;;1.10;;
13981;SDS011;7065;50.880;5.502;2023-03-14T04:45:01;2.08;;;0.90;;
13981;SDS011;7065;50.880;5.502;2023-03-14T04:47:27;2.90;;;0.98;;
13981;SDS011;7065;50.880;5.502;2023-03-14T04:49:53;3.28;;;0.77;;
13981;SDS011;7065;50.880;5.502;2023-03-14T04:52:19;3.42;;;1.13;;
13981;SDS011;7065;50.880;5.502;2023-03-14T04:54:45;1.70;;;0.70;;
13981;SDS011;7065;50.880;5.502;2023-03-14T04:57:11;1.65;;;0.70;;
13981;SDS011;7065;50.880;5.502;2023-03-14T04:59:36;4.22;;;1.23;;
13981;SDS011;7065;50.880;5.502;2023-03-14T05:02:02;2.13;;;1.10;;
13981;SDS011;7065;50.880;5.502;2023-03-14T05:04:28;1.67;;;0.98;;
13981;SDS011;7065;50.880;5.502;2023-03-14T05:06:54;2.17;;;0.95;;
13981;SDS011;7065;50.880;5.502;2023-03-14T05:09:20;1.20;;;0.90;;
13981;SDS011;7065;50.880;5.502;2023-03-14T05:11:45;1.20;;;0.65;;
13981;SDS011;7065;50.880;5.502;2023-03-14T05:14:11;1.05;;;0.85;;
13981;SDS011;7065;50.880;5.502;2023-03-14T05:16:37;1.23;;;0.80;;
13981;SDS011;7065;50.880;5.502;2023-03-14T05:19:02;3.53;;;0.82;;
13981;SDS011;7065;50.880;5.502;2023-03-14T05:21:29;1.88;;;0.73;;
13981;SDS011;7065;50.880;5.502;2023-03-14T05:23:54;0.90;;;0.68;;
13981;SDS011;7065;50.880;5.502;2023-03-14T05:26:20;2.22;;;0.98;;
13981;SDS011;7065;50.880;5.502;2023-03-14T05:28:46;0.70;;;0.60;;
13981;SDS011;7065;50.880;5.502;2023-03-14T05:31:12;1.80;;;0.80;;
13981;SDS011;7065;50.880;5.502;2023-03-14T05:33:37;0.75;;;0.65;;
13981;SDS011;7065;50.880;5.502;2023-03-14T05:36:03;0.88;;;0.80;;
13981;SDS011;7065;50.880;5.502;2023-03-14T05:38:29;2.42;;;0.88;;
13981;SDS011;7065;50.880;5.502;2023-03-14T05:40:55;0.70;;;0.70;;
13981;SDS011;7065;50.880;5.502;2023-03-14T05:43:20;1.50;;;0.70;;
13981;SDS011;7065;50.880;5.502;2023-03-14T05:45:46;1.73;;;0.80;;
13981;SDS011;7065;50.880;5.502;2023-03-14T05:48:12;0.63;;;0.63;;
13981;SDS011;7065;50.880;5.502;2023-03-14T05:50:38;1.55;;;0.75;;
13981;SDS011;7065;50.880;5.502;2023-03-14T05:53:04;0.95;;;0.60;;
13981;SDS011;7065;50.880;5.502;2023-03-14T05:55:29;0.55;;;0.52;;
13981;SDS011;7065;50.880;5.502;2023-03-14T05:57:55;0.65;;;0.60;;
13981;SDS011;7065;50.880;5.502;2023-03-14T06:00:21;0.98;;;0.60;;
13981;SDS011;7065;50.880;5.502;2023-03-14T06:02:47;1.13;;;0.60;;
13981;SDS011;7065;50.880;5.502;2023-03-14T06:05:13;2.55;;;0.80;;
13981;SDS011;7065;50.880;5.502;2023-03-14T06:07:39;1.40;;;0.70;;
13981;SDS011;7065;50.880;5.502;2023-03-14T06:10:05;1.17;;;0.70;;
13981;SDS011;7065;50.880;5.502;2023-03-14T06:12:31;0.90;;;0.68;;
13981;SDS011;7065;50.880;5.502;2023-03-14T06:14:56;1.75;;;0.88;;
13981;SDS011;7065;50.880;5.502;2023-03-14T06:17:22;1.02;;;0.70;;
13981;SDS011;7065;50.880;5.502;2023-03-14T06:19:48;1.52;;;1.30;;
13981;SDS011;7065;50.880;5.502;2023-03-14T06:22:13;1.95;;;1.00;;
13981;SDS011;7065;50.880;5.502;2023-03-14T06:24:39;2.70;;;1.00;;
13981;SDS011;7065;50.880;5.502;2023-03-14T06:27:05;1.13;;;0.90;;
13981;SDS011;7065;50.880;5.502;2023-03-14T06:29:30;0.60;;;0.60;;
13981;SDS011;7065;50.880;5.502;2023-03-14T06:31:56;1.42;;;1.00;;
13981;SDS011;7065;50.880;5.502;2023-03-14T06:34:22;2.00;;;1.00;;
13981;SDS011;7065;50.880;5.502;2023-03-14T06:36:48;1.67;;;0.82;;
13981;SDS011;7065;50.880;5.502;2023-03-14T06:39:14;0.95;;;0.90;;
13981;SDS011;7065;50.880;5.502;2023-03-14T06:41:40;1.30;;;1.10;;
13981;SDS011;7065;50.880;5.502;2023-03-14T06:44:06;2.17;;;1.30;;
13981;SDS011;7065;50.880;5.502;2023-03-14T06:46:31;1.73;;;1.60;;
13981;SDS011;7065;50.880;5.502;2023-03-14T06:48:57;3.63;;;1.88;;
13981;SDS011;7065;50.880;5.502;2023-03-14T06:51:23;2.95;;;2.55;;
13981;SDS011;7065;50.880;5.502;2023-03-14T06:53:48;2.67;;;2.20;;
13981;SDS011;7065;50.880;5.502;2023-03-14T06:56:14;4.15;;;2.53;;
13981;SDS011;7065;50.880;5.502;2023-03-14T06:58:40;2.88;;;2.60;;
13981;SDS011;7065;50.880;5.502;2023-03-14T07:01:05;2.97;;;2.30;;
13981;SDS011;7065;50.880;5.502;2023-03-14T07:03:39;3.25;;;2.50;;
13981;SDS011;7065;50.880;5.502;2023-03-14T07:06:05;3.90;;;2.30;;
13981;SDS011;7065;50.880;5.502;2023-03-14T07:08:31;2.95;;;2.28;;
13981;SDS011;7065;50.880;5.502;2023-03-14T07:10:57;3.35;;;2.03;;
13981;SDS011;7065;50.880;5.502;2023-03-14T07:13:22;3.33;;;2.17;;
13981;SDS011;7065;50.880;5.502;2023-03-14T07:15:48;3.22;;;2.00;;
13981;SDS011;7065;50.880;5.502;2023-03-14T07:18:14;2.33;;;1.98;;
13981;SDS011;7065;50.880;5.502;2023-03-14T07:20:40;2.85;;;1.90;;
13981;SDS011;7065;50.880;5.502;2023-03-14T07:23:06;2.28;;;1.77;;
13981;SDS011;7065;50.880;5.502;2023-03-14T07:25:31;2.22;;;2.03;;
13981;SDS011;7065;50.880;5.502;2023-03-14T07:27:57;3.28;;;2.00;;
13981;SDS011;7065;50.880;5.502;2023-03-14T07:30:22;3.90;;;2.33;;
13981;SDS011;7065;50.880;5.502;2023-03-14T07:32:48;4.75;;;2.30;;
13981;SDS011;7065;50.880;5.502;2023-03-14T07:35:14;3.83;;;2.65;;
13981;SDS011;7065;50.880;5.502;2023-03-14T07:37:39;3.60;;;3.00;;
13981;SDS011;7065;50.880;5.502;2023-03-14T07:40:05;7.05;;;3.33;;
13981;SDS011;7065;50.880;5.502;2023-03-14T07:42:32;3.40;;;3.10;;
13981;SDS011;7065;50.880;5.502;2023-03-14T07:44:57;4.15;;;3.15;;
13981;SDS011;7065;50.880;5.502;2023-03-14T07:47:23;3.75;;;2.72;;
13981;SDS011;7065;50.880;5.502;2023-03-14T07:49:49;2.60;;;2.35;;
13981;SDS011;7065;50.880;5.502;2023-03-14T07:52:14;4.22;;;2.28;;
13981;SDS011;7065;50.880;5.502;2023-03-14T07:54:40;5.15;;;2.45;;
13981;SDS011;7065;50.880;5.502;2023-03-14T07:57:06;3.17;;;2.30;;
13981;SDS011;7065;50.880;5.502;2023-03-14T07:59:32;3.17;;;2.05;;
13981;SDS011;7065;50.880;5.502;2023-03-14T08:01:58;3.95;;;1.40;;
13981;SDS011;7065;50.880;5.502;2023-03-14T08:04:23;3.90;;;1.70;;
13981;SDS011;7065;50.880;5.502;2023-03-14T08:06:49;3.60;;;1.20;;
13981;SDS011;7065;50.880;5.502;2023-03-14T08:09:15;2.30;;;1.00;;
13981;SDS011;7065;50.880;5.502;2023-03-14T08:11:40;1.55;;;1.10;;
13981;SDS011;7065;50.880;5.502;2023-03-14T08:14:06;1.67;;;1.42;;
13981;SDS011;7065;50.880;5.502;2023-03-14T08:16:32;1.83;;;1.52;;
13981;SDS011;7065;50.880;5.502;2023-03-14T08:18:57;2.08;;;1.10;;
13981;SDS011;7065;50.880;5.502;2023-03-14T08:21:23;1.85;;;1.60;;
13981;SDS011;7065;50.880;5.502;2023-03-14T08:23:49;1.52;;;1.40;;
13981;SDS011;7065;50.880;5.502;2023-03-14T08:26:15;1.88;;;1.40;;
13981;SDS011;7065;50.880;5.502;2023-03-14T08:28:40;1.65;;;1.30;;
13981;SDS011;7065;50.880;5.502;2023-03-14T08:31:06;2.95;;;1.60;;
13981;SDS011;7065;50.880;5.502;2023-03-14T08:33:32;1.67;;;1.58;;
13981;SDS011;7065;50.880;5.502;2023-03-14T08:35:59;5.40;;;1.60;;
13981;SDS011;7065;50.880;5.502;2023-03-14T08:38:26;1.67;;;1.55;;
13981;SDS011;7065;50.880;5.502;2023-03-14T08:40:56;1.95;;;1.67;;
13981;SDS011;7065;50.880;5.502;2023-03-14T08:43:23;2.00;;;1.90;;
13981;SDS011;7065;50.880;5.502;2023-03-14T08:45:49;4.80;;;2.55;;
13981;SDS011;7065;50.880;5.502;2023-03-14T08:48:15;3.22;;;2.60;;
13981;SDS011;7065;50.880;5.502;2023-03-14T08:50:40;4.47;;;4.03;;
13981;SDS011;7065;50.880;5.502;2023-03-14T08:53:06;5.93;;;3.80;;
13981;SDS011;7065;50.880;5.502;2023-03-14T08:55:32;5.47;;;3.22;;
13981;SDS011;7065;50.880;5.502;2023-03-14T08:57:57;3.08;;;2.60;;
13981;SDS011;7065;50.880;5.502;2023-03-14T09:00:23;5.47;;;3.35;;
13981;SDS011;7065;50.880;5.502;2023-03-14T09:02:49;3.95;;;2.40;;
13981;SDS011;7065;50.880;5.502;2023-03-14T09:05:15;4.75;;;2.50;;
13981;SDS011;7065;50.880;5.502;2023-03-14T09:07:41;5.43;;;2.47;;
13981;SDS011;7065;50.880;5.502;2023-03-14T09:10:07;4.13;;;2.80;;
13981;SDS011;7065;50.880;5.502;2023-03-14T09:12:33;5.00;;;3.22;;
13981;SDS011;7065;50.880;5.502;2023-03-14T09:14:59;4.38;;;3.30;;
13981;SDS011;7065;50.880;5.502;2023-03-14T09:17:25;4.20;;;3.65;;
13981;SDS011;7065;50.880;5.502;2023-03-14T09:19:51;7.45;;;4.50;;
13981;SDS011;7065;50.880;5.502;2023-03-14T09:22:17;5.57;;;4.47;;
13981;SDS011;7065;50.880;5.502;2023-03-14T09:24:43;4.72;;;4.32;;
13981;SDS011;7065;50.880;5.502;2023-03-14T09:27:09;6.93;;;4.72;;
13981;SDS011;7065;50.880;5.502;2023-03-14T09:29:34;7.72;;;5.38;;
13981;SDS011;7065;50.880;5.502;2023-03-14T09:32:00;6.57;;;4.63;;
13981;SDS011;7065;50.880;5.502;2023-03-14T09:34:26;6.43;;;3.95;;
13981;SDS011;7065;50.880;5.502;2023-03-14T09:36:52;4.97;;;3.70;;
13981;SDS011;7065;50.880;5.502;2023-03-14T09:39:18;5.75;;;3.80;;
13981;SDS011;7065;50.880;5.502;2023-03-14T09:41:44;7.57;;;3.70;;
13981;SDS011;7065;50.880;5.502;2023-03-14T09:44:14;4.82;;;3.58;;
13981;SDS011;7065;50.880;5.502;2023-03-14T09:46:52;4.75;;;4.10;;
13981;SDS011;7065;50.880;5.502;2023-03-14T09:49:29;4.95;;;3.83;;
13981;SDS011;7065;50.880;5.502;2023-03-14T09:51:57;4.70;;;4.28;;
13981;SDS011;7065;50.880;5.502;2023-03-14T09:57:02;4.65;;;3.75;;
13981;SDS011;7065;50.880;5.502;2023-03-14T09:59:31;4.18;;;3.78;;
13981;SDS011;7065;50.880;5.502;2023-03-14T10:02:02;5.90;;;3.95;;
13981;SDS011;7065;50.880;5.502;2023-03-14T10:04:45;4.18;;;2.33;;
13981;SDS011;7065;50.880;5.502;2023-03-14T10:07:13;5.13;;;2.60;;
13981;SDS011;7065;50.880;5.502;2023-03-14T10:09:42;3.03;;;2.20;;
13981;SDS011;7065;50.880;5.502;2023-03-14T10:12:09;3.83;;;2.30;;
13981;SDS011;7065;50.880;5.502;2023-03-14T10:14:36;4.63;;;1.65;;
13981;SDS011;7065;50.880;5.502;2023-03-14T10:17:10;3.65;;;1.70;;
13981;SDS011;7065;50.880;5.502;2023-03-14T10:19:50;3.53;;;1.95;;
13981;SDS011;7065;50.880;5.502;2023-03-14T10:22:20;1.67;;;1.00;;
13981;SDS011;7065;50.880;5.502;2023-03-14T10:24:52;0.73;;;0.73;;
13981;SDS011;7065;50.880;5.502;2023-03-14T10:27:20;1.67;;;0.80;;
13981;SDS011;7065;50.880;5.502;2023-03-14T10:29:53;1.50;;;1.00;;
13981;SDS011;7065;50.880;5.502;2023-03-14T10:32:27;1.90;;;1.30;;
13981;SDS011;7065;50.880;5.502;2023-03-14T10:35:05;2.80;;;1.88;;
13981;SDS011;7065;50.880;5.502;2023-03-14T10:37:57;2.72;;;2.22;;
13981;SDS011;7065;50.880;5.502;2023-03-14T10:40:37;2.55;;;1.90;;
13981;SDS011;7065;50.880;5.502;2023-03-14T10:43:06;3.97;;;1.80;;
13981;SDS011;7065;50.880;5.502;2023-03-14T10:45:39;2.83;;;1.65;;
13981;SDS011;7065;50.880;5.502;2023-03-14T10:48:23;2.45;;;1.58;;
13981;SDS011;7065;50.880;5.502;2023-03-14T10:53:16;2.15;;;1.02;;
13981;SDS011;7065;50.880;5.502;2023-03-14T10:55:44;1.92;;;0.90;;
13981;SDS011;7065;50.880;5.502;2023-03-14T10:58:26;2.97;;;1.10;;
13981;SDS011;7065;50.880;5.502;2023-03-14T11:00:57;2.47;;;1.00;;
13981;SDS011;7065;50.880;5.502;2023-03-14T11:03:27;2.17;;;1.08;;
13981;SDS011;7065;50.880;5.502;2023-03-14T11:06:42;2.15;;;1.27;;
13981;SDS011;7065;50.880;5.502;2023-03-14T11:11:18;3.78;;;1.50;;
13981;SDS011;7065;50.880;5.502;2023-03-14T11:22:20;1.33;;;1.00;;
13981;SDS011;7065;50.880;5.502;2023-03-14T11:27:41;1.35;;;0.95;;
13981;SDS011;7065;50.880;5.502;2023-03-14T11:34:10;2.00;;;1.10;;
13981;SDS011;7065;50.880;5.502;2023-03-14T11:36:10;1.58;;;1.20;;
13981;SDS011;7065;50.880;5.502;2023-03-14T11:38:58;2.25;;;1.45;;
13981;SDS011;7065;50.880;5.502;2023-03-14T11:41:32;1.65;;;1.33;;
13981;SDS011;7065;50.880;5.502;2023-03-14T11:44:02;1.55;;;1.45;;
13981;SDS011;7065;50.880;5.502;2023-03-14T11:46:38;3.42;;;2.58;;
13981;SDS011;7065;50.880;5.502;2023-03-14T11:51:50;1.65;;;1.55;;
13981;SDS011;7065;50.880;5.502;2023-03-14T11:56:54;2.70;;;1.95;;
13981;SDS011;7065;50.880;5.502;2023-03-14T11:59:24;2.13;;;2.00;;
13981;SDS011;7065;50.880;5.502;2023-03-14T12:10:29;4.47;;;2.22;;
13981;SDS011;7065;50.880;5.502;2023-03-14T12:12:55;1.55;;;1.33;;
13981;SDS011;7065;50.880;5.502;2023-03-14T12:15:22;1.65;;;1.50;;
13981;SDS011;7065;50.880;5.502;2023-03-14T12:17:53;1.80;;;1.27;;
13981;SDS011;7065;50.880;5.502;2023-03-14T12:20:21;2.85;;;1.38;;
13981;SDS011;7065;50.880;5.502;2023-03-14T12:25:27;4.60;;;1.88;;
13981;SDS011;7065;50.880;5.502;2023-03-14T12:35:46;2.70;;;2.50;;
13981;SDS011;7065;50.880;5.502;2023-03-14T12:40:41;4.18;;;2.05;;
13981;SDS011;7065;50.880;5.502;2023-03-14T12:43:40;6.47;;;2.40;;
13981;SDS011;7065;50.880;5.502;2023-03-14T12:48:46;3.75;;;2.75;;
13981;SDS011;7065;50.880;5.502;2023-03-14T12:51:15;3.22;;;2.30;;
13981;SDS011;7065;50.880;5.502;2023-03-14T13:01:53;7.43;;;2.10;;
13981;SDS011;7065;50.880;5.502;2023-03-14T13:04:32;5.53;;;2.45;;
13981;SDS011;7065;50.880;5.502;2023-03-14T13:07:02;7.38;;;2.25;;
13981;SDS011;7065;50.880;5.502;2023-03-14T13:11:54;9.80;;;3.20;;
13981;SDS011;7065;50.880;5.502;2023-03-14T13:14:25;7.47;;;2.95;;
13981;SDS011;7065;50.880;5.502;2023-03-14T13:16:53;6.82;;;2.63;;
13981;SDS011;7065;50.880;5.502;2023-03-14T13:19:29;10.88;;;2.92;;
13981;SDS011;7065;50.880;5.502;2023-03-14T13:22:12;9.65;;;2.42;;
13981;SDS011;7065;50.880;5.502;2023-03-14T13:24:44;11.73;;;3.03;;
13981;SDS011;7065;50.880;5.502;2023-03-14T13:27:19;8.25;;;2.20;;
13981;SDS011;7065;50.880;5.502;2023-03-14T13:29:48;4.90;;;2.25;;
13981;SDS011;7065;50.880;5.502;2023-03-14T13:32:22;8.13;;;2.47;;
13981;SDS011;7065;50.880;5.502;2023-03-14T13:34:55;9.27;;;2.25;;
13981;SDS011;7065;50.880;5.502;2023-03-14T13:37:22;12.43;;;2.47;;
13981;SDS011;7065;50.880;5.502;2023-03-14T13:39:50;11.85;;;2.63;;
13981;SDS011;7065;50.880;5.502;2023-03-14T13:42:16;9.82;;;2.72;;
13981;SDS011;7065;50.880;5.502;2023-03-14T13:44:42;11.82;;;2.28;;
13981;SDS011;7065;50.880;5.502;2023-03-14T13:47:13;9.70;;;2.50;;
13981;SDS011;7065;50.880;5.502;2023-03-14T13:49:41;10.30;;;2.70;;
13981;SDS011;7065;50.880;5.502;2023-03-14T13:54:58;11.85;;;3.53;;
13981;SDS011;7065;50.880;5.502;2023-03-14T13:57:25;9.50;;;2.80;;
13981;SDS011;7065;50.880;5.502;2023-03-14T14:00:00;8.25;;;2.83;;
13981;SDS011;7065;50.880;5.502;2023-03-14T14:02:31;11.93;;;3.15;;
13981;SDS011;7065;50.880;5.502;2023-03-14T14:04:58;10.48;;;3.67;;
13981;SDS011;7065;50.880;5.502;2023-03-14T14:07:25;13.23;;;3.42;;
13981;SDS011;7065;50.880;5.502;2023-03-14T14:09:51;15.00;;;3.47;;
13981;SDS011;7065;50.880;5.502;2023-03-14T14:12:35;14.45;;;4.80;;
13981;SDS011;7065;50.880;5.502;2023-03-14T14:15:26;10.38;;;3.22;;
13981;SDS011;7065;50.880;5.502;2023-03-14T14:17:56;13.50;;;3.70;;
13981;SDS011;7065;50.880;5.502;2023-03-14T14:20:57;13.45;;;4.00;;
13981;SDS011;7065;50.880;5.502;2023-03-14T14:23:20;14.15;;;3.88;;
13981;SDS011;7065;50.880;5.502;2023-03-14T14:25:54;10.07;;;3.65;;
13981;SDS011;7065;50.880;5.502;2023-03-14T14:28:28;12.82;;;3.92;;
13981;SDS011;7065;50.880;5.502;2023-03-14T14:30:59;15.38;;;3.28;;
13981;SDS011;7065;50.880;5.502;2023-03-14T14:41:42;13.18;;;3.08;;
13981;SDS011;7065;50.880;5.502;2023-03-14T14:44:12;12.32;;;3.00;;
13981;SDS011;7065;50.880;5.502;2023-03-14T14:46:41;9.20;;;3.20;;
13981;SDS011;7065;50.880;5.502;2023-03-14T14:49:14;11.77;;;3.15;;
13981;SDS011;7065;50.880;5.502;2023-03-14T14:51:44;10.60;;;3.10;;
13981;SDS011;7065;50.880;5.502;2023-03-14T14:56:39;7.18;;;2.70;;
13981;SDS011;7065;50.880;5.502;2023-03-14T14:59:05;20.00;;;3.70;;
13981;SDS011;7065;50.880;5.502;2023-03-14T15:01:43;6.78;;;2.80;;
13981;SDS011;7065;50.880;5.502;2023-03-14T15:04:09;9.43;;;2.20;;
13981;SDS011;7065;50.880;5.502;2023-03-14T15:06:38;10.00;;;2.35;;
13981;SDS011;7065;50.880;5.502;2023-03-14T15:09:08;6.88;;;2.35;;
13981;SDS011;7065;50.880;5.502;2023-03-14T15:11:35;5.63;;;2.05;;
13981;SDS011;7065;50.880;5.502;2023-03-14T15:14:01;8.18;;;2.67;;
13981;SDS011;7065;50.880;5.502;2023-03-14T15:16:29;5.78;;;2.00;;
13981;SDS011;7065;50.880;5.502;2023-03-14T15:19:03;9.20;;;2.63;;
13981;SDS011;7065;50.880;5.502;2023-03-14T15:21:41;4.22;;;2.00;;
13981;SDS011;7065;50.880;5.502;2023-03-14T15:24:08;7.55;;;2.40;;
13981;SDS011;7065;50.880;5.502;2023-03-14T15:26:34;9.82;;;2.03;;
13981;SDS011;7065;50.880;5.502;2023-03-14T15:29:00;6.13;;;2.08;;
13981;SDS011;7065;50.880;5.502;2023-03-14T15:31:26;7.25;;;2.10;;
13981;SDS011;7065;50.880;5.502;2023-03-14T15:33:52;8.38;;;2.38;;
13981;SDS011;7065;50.880;5.502;2023-03-14T15:38:53;8.30;;;2.58;;
13981;SDS011;7065;50.880;5.502;2023-03-14T15:41:20;10.98;;;2.95;;
13981;SDS011;7065;50.880;5.502;2023-03-14T15:43:46;8.88;;;2.47;;
13981;SDS011;7065;50.880;5.502;2023-03-14T15:46:12;9.23;;;2.17;;
13981;SDS011;7065;50.880;5.502;2023-03-14T15:48:38;8.32;;;2.63;;
13981;SDS011;7065;50.880;5.502;2023-03-14T15:51:04;10.43;;;2.45;;
13981;SDS011;7065;50.880;5.502;2023-03-14T15:53:29;9.15;;;2.03;;
13981;SDS011;7065;50.880;5.502;2023-03-14T15:55:55;9.75;;;2.42;;
13981;SDS011;7065;50.880;5.502;2023-03-14T15:58:21;6.80;;;1.83;;
13981;SDS011;7065;50.880;5.502;2023-03-14T16:00:47;8.30;;;1.77;;
13981;SDS011;7065;50.880;5.502;2023-03-14T16:03:14;5.57;;;1.83;;
13981;SDS011;7065;50.880;5.502;2023-03-14T16:05:40;4.22;;;1.52;;
13981;SDS011;7065;50.880;5.502;2023-03-14T16:08:06;4.35;;;1.80;;
13981;SDS011;7065;50.880;5.502;2023-03-14T16:10:32;6.88;;;1.60;;
13981;SDS011;7065;50.880;5.502;2023-03-14T16:12:58;5.90;;;1.52;;
13981;SDS011;7065;50.880;5.502;2023-03-14T16:15:24;5.18;;;1.60;;
13981;SDS011;7065;50.880;5.502;2023-03-14T16:17:53;4.97;;;1.58;;
13981;SDS011;7065;50.880;5.502;2023-03-14T16:20:19;6.57;;;2.22;;
13981;SDS011;7065;50.880;5.502;2023-03-14T16:22:46;6.95;;;2.17;;
13981;SDS011;7065;50.880;5.502;2023-03-14T16:25:12;6.05;;;1.65;;
13981;SDS011;7065;50.880;5.502;2023-03-14T16:27:38;8.02;;;1.38;;
13981;SDS011;7065;50.880;5.502;2023-03-14T16:30:04;5.03;;;1.73;;
13981;SDS011;7065;50.880;5.502;2023-03-14T16:32:31;5.13;;;1.88;;
13981;SDS011;7065;50.880;5.502;2023-03-14T16:34:57;7.68;;;1.50;;